Temp: 18.0°C   Baro: 1015.7mb
  Wind: 15.0mph   Dir: W (270°)
  Rain: 9.6mm (0.0mm/hr)
  Solar: 645W/m2  Hum: 66%
 
Bath Spa Weather Historical Data
Daily Summary for February 12, 2019 Units:  Metric    English   Both
Next Day »
Daily Weekly Monthly Yearly Custom
  High: Low: Average:
Temperature: 10.0 °C -0.3 °C 5.8 °C
Dew Point: 7.2 °C -1.1 °C 4.1 °C
Humidity: 95% 80% 89%
Wind Speed: 20.9km/h 0.0km/h 3.7km/h
Wind Gust: 20.9km/h - -
Wind direction- - WSW
Pressure: 1033.1 hPa 1031.7 hPa -
Precipitation: 0.3 mm    
Historical Graphs
 
 
Tabular Data for February 12, 2019
Time Temperature Dew Point Pressure Wind direction Wind Speed Wind Gust Humidity Rainfall Rate (Hourly) solar
00:04 1.8 °C 0.8 °C 1032.4 hPa Calm     93% 0.0 mm 0.00 W/m2
00:09 1.8 °C 0.8 °C 1032.4 hPa Calm     93% 0.0 mm 0.00 W/m2
00:14 1.8 °C 0.6 °C 1032.4 hPa Calm     92% 0.0 mm 0.00 W/m2
00:19 1.7 °C 0.7 °C 1032.4 hPa Calm     93% 0.0 mm 0.00 W/m2
00:24 1.7 °C 0.7 °C 1032.4 hPa Calm     93% 0.0 mm 0.00 W/m2
00:29 1.7 °C 0.7 °C 1032.7 hPa NNW 1.6 km/h 1.6 km/h 93% 0.0 mm 0.00 W/m2
00:34 1.6 °C 0.6 °C 1032.4 hPa Calm     93% 0.0 mm 0.00 W/m2
00:39 1.6 °C 0.6 °C 1032.4 hPa Calm     93% 0.0 mm 0.00 W/m2
00:44 1.5 °C 0.5 °C 1032.4 hPa Calm     93% 0.0 mm 0.00 W/m2
00:49 1.5 °C 0.5 °C 1032.4 hPa Calm     93% 0.0 mm 0.00 W/m2
00:54 1.4 °C 0.4 °C 1032.4 hPa Calm     93% 0.0 mm 0.00 W/m2
00:59 1.3 °C 0.3 °C 1032.7 hPa Calm     93% 0.0 mm 0.00 W/m2
01:04 1.2 °C 0.2 °C 1032.7 hPa Calm     93% 0.0 mm 0.00 W/m2
01:09 1.3 °C 0.3 °C 1032.7 hPa Calm     93% 0.0 mm 0.00 W/m2
01:14 1.2 °C 0.2 °C 1032.7 hPa Calm   1.6 km/h 93% 0.0 mm 0.00 W/m2
01:19 1.2 °C 0.2 °C 1032.7 hPa Calm     93% 0.0 mm 0.00 W/m2
01:24 1.2 °C 0.2 °C 1032.4 hPa Calm     93% 0.0 mm 0.00 W/m2
01:29 1.2 °C 0.2 °C 1032.4 hPa Calm     93% 0.0 mm 0.00 W/m2
01:34 1.1 °C 0.1 °C 1032.4 hPa Calm     93% 0.0 mm 0.00 W/m2
01:39 1.0 °C 0.0 °C 1032.4 hPa Calm     93% 0.0 mm 0.00 W/m2
01:44 1.0 °C 0.0 °C 1032.4 hPa NNW 1.4 km/h 3.2 km/h 93% 0.0 mm 0.00 W/m2
01:49 1.2 °C 0.2 °C 1032.4 hPa Calm   1.6 km/h 93% 0.0 mm 0.00 W/m2
01:54 1.2 °C 0.3 °C 1032.4 hPa Calm   1.6 km/h 94% 0.0 mm 0.00 W/m2
01:59 1.0 °C 0.0 °C 1032.4 hPa Calm     93% 0.0 mm 0.00 W/m2
02:04 1.0 °C 0.0 °C 1032.4 hPa Calm     93% 0.0 mm 0.00 W/m2
02:09 0.8 °C -0.2 °C 1032.4 hPa Calm     93% 0.0 mm 0.00 W/m2
02:14 0.8 °C -0.2 °C 1032.4 hPa Calm     93% 0.0 mm 0.00 W/m2
02:19 0.8 °C -0.2 °C 1032.4 hPa Calm     93% 0.0 mm 0.00 W/m2
02:24 0.9 °C -0.1 °C 1032.4 hPa Calm   3.2 km/h 93% 0.0 mm 0.00 W/m2
02:29 0.8 °C -0.2 °C 1032.4 hPa Calm     93% 0.0 mm 0.00 W/m2
02:34 0.8 °C -0.2 °C 1032.4 hPa Calm     93% 0.0 mm 0.00 W/m2
02:39 0.8 °C -0.1 °C 1032.4 hPa Calm   3.2 km/h 94% 0.0 mm 0.00 W/m2
02:44 0.8 °C -0.1 °C 1032.4 hPa Calm     94% 0.0 mm 0.00 W/m2
02:49 0.8 °C -0.1 °C 1032.4 hPa Calm     94% 0.0 mm 0.00 W/m2
02:54 0.8 °C -0.1 °C 1032.1 hPa Calm     94% 0.0 mm 0.00 W/m2
02:59 0.7 °C -0.2 °C 1032.1 hPa Calm     94% 0.0 mm 0.00 W/m2
03:04 0.7 °C -0.2 °C 1032.1 hPa Calm     94% 0.0 mm 0.00 W/m2
03:09 0.7 °C -0.2 °C 1032.1 hPa Calm     94% 0.0 mm 0.00 W/m2
03:14 0.5 °C -0.4 °C 1032.1 hPa Calm     94% 0.0 mm 0.00 W/m2
03:19 0.6 °C -0.3 °C 1032.1 hPa Calm     94% 0.0 mm 0.00 W/m2
03:24 0.6 °C -0.3 °C 1032.1 hPa Calm     94% 0.0 mm 0.00 W/m2
03:29 0.5 °C -0.4 °C 1032.1 hPa Calm     94% 0.0 mm 0.00 W/m2
03:34 0.5 °C -0.4 °C 1032.1 hPa Calm     94% 0.0 mm 0.00 W/m2
03:39 0.4 °C -0.5 °C 1031.7 hPa Calm     94% 0.0 mm 0.00 W/m2
03:44 0.4 °C -0.5 °C 1032.1 hPa Calm     94% 0.0 mm 0.00 W/m2
03:49 0.4 °C -0.5 °C 1031.7 hPa Calm     94% 0.0 mm 0.00 W/m2
03:54 0.4 °C -0.5 °C 1031.7 hPa Calm     94% 0.0 mm 0.00 W/m2
03:59 0.4 °C -0.5 °C 1031.7 hPa Calm     94% 0.0 mm 0.00 W/m2
04:04 0.4 °C -0.5 °C 1031.7 hPa Calm     94% 0.0 mm 0.00 W/m2
04:09 0.3 °C -0.6 °C 1031.7 hPa Calm     94% 0.0 mm 0.00 W/m2
04:14 0.3 °C -0.6 °C 1031.7 hPa Calm     94% 0.0 mm 0.00 W/m2
04:19 0.3 °C -0.6 °C 1031.7 hPa Calm     94% 0.0 mm 0.00 W/m2
04:24 0.3 °C -0.6 °C 1031.7 hPa Calm     94% 0.0 mm 0.00 W/m2
04:29 0.3 °C -0.6 °C 1031.7 hPa Calm     94% 0.0 mm 0.00 W/m2
04:34 0.2 °C -0.7 °C 1031.7 hPa Calm     94% 0.0 mm 0.00 W/m2
04:39 0.2 °C -0.7 °C 1031.7 hPa Calm     94% 0.0 mm 0.00 W/m2
04:44 0.1 °C -0.8 °C 1031.7 hPa Calm     94% 0.0 mm 0.00 W/m2
04:49 0.0 °C -0.8 °C 1032.1 hPa Calm     94% 0.0 mm 0.00 W/m2
04:54 0.0 °C -0.8 °C 1032.1 hPa Calm     94% 0.0 mm 0.00 W/m2
04:59 0.0 °C -0.8 °C 1032.1 hPa Calm     94% 0.0 mm 0.00 W/m2
05:04 0.0 °C -0.8 °C 1032.1 hPa Calm     94% 0.0 mm 0.00 W/m2
05:09 0.0 °C -0.8 °C 1032.1 hPa Calm     94% 0.0 mm 0.00 W/m2
05:14 -0.1 °C -0.9 °C 1032.1 hPa Calm     94% 0.0 mm 0.00 W/m2
05:19 -0.1 °C -0.9 °C 1032.1 hPa Calm     94% 0.0 mm 0.00 W/m2
05:24 -0.1 °C -0.9 °C 1032.1 hPa Calm     94% 0.0 mm 0.00 W/m2
05:29 -0.2 °C -1.0 °C 1032.1 hPa Calm     94% 0.0 mm 0.00 W/m2
05:34 -0.2 °C -1.0 °C 1032.1 hPa Calm     94% 0.0 mm 0.00 W/m2
05:39 -0.2 °C -1.0 °C 1032.4 hPa Calm     94% 0.0 mm 0.00 W/m2
05:44 -0.3 °C -1.1 °C 1032.4 hPa Calm     94% 0.0 mm 0.00 W/m2
05:49 -0.3 °C -1.1 °C 1032.4 hPa Calm     94% 0.0 mm 0.00 W/m2
05:54 -0.3 °C -1.1 °C 1032.1 hPa Calm     94% 0.0 mm 0.00 W/m2
05:59 -0.2 °C -1.0 °C 1032.1 hPa Calm     94% 0.0 mm 0.00 W/m2
06:04 -0.2 °C -1.0 °C 1032.1 hPa Calm     94% 0.0 mm 0.00 W/m2
06:09 -0.3 °C -1.1 °C 1032.1 hPa Calm     94% 0.0 mm 0.00 W/m2
06:14 -0.3 °C -1.1 °C 1032.1 hPa Calm     94% 0.0 mm 0.00 W/m2
06:19 -0.2 °C -1.0 °C 1031.7 hPa Calm     94% 0.0 mm 0.00 W/m2
06:24 -0.2 °C -1.0 °C 1032.1 hPa Calm     94% 0.0 mm 0.00 W/m2
06:29 -0.2 °C -1.0 °C 1032.1 hPa Calm     94% 0.0 mm 0.00 W/m2
06:34 -0.2 °C -1.0 °C 1032.1 hPa Calm   1.6 km/h 94% 0.0 mm 0.00 W/m2
06:39 -0.2 °C -1.0 °C 1032.1 hPa Calm     94% 0.0 mm 0.00 W/m2
06:44 -0.1 °C -0.9 °C 1032.1 hPa Calm     94% 0.0 mm 0.00 W/m2
06:49 -0.2 °C -1.0 °C 1032.1 hPa Calm   1.6 km/h 94% 0.0 mm 0.00 W/m2
06:54 -0.2 °C -1.0 °C 1032.1 hPa Calm     94% 0.0 mm 0.00 W/m2
06:59 -0.2 °C -1.0 °C 1032.1 hPa Calm     94% 0.0 mm 0.00 W/m2
07:04 -0.2 °C -1.0 °C 1032.1 hPa Calm     94% 0.0 mm 0.00 W/m2
07:09 -0.1 °C -0.9 °C 1032.1 hPa Calm     94% 0.0 mm 0.00 W/m2
07:14 -0.1 °C -0.9 °C 1032.1 hPa Calm     94% 0.0 mm 0.00 W/m2
07:19 -0.2 °C -0.9 °C 1032.1 hPa Calm     95% 0.0 mm 0.00 W/m2
07:24 -0.2 °C -0.9 °C 1032.1 hPa Calm     95% 0.0 mm 0.00 W/m2
07:29 -0.1 °C -0.8 °C 1032.1 hPa Calm     95% 0.0 mm 0.00 W/m2
07:34 -0.1 °C -0.8 °C 1032.1 hPa Calm     95% 0.0 mm 5.00 W/m2
07:39 0.3 °C -0.4 °C 1032.4 hPa Calm     95% 0.0 mm 9.00 W/m2
07:44 0.4 °C -0.3 °C 1032.4 hPa Calm     95% 0.0 mm 12.00 W/m2
07:49 0.4 °C -0.3 °C 1032.4 hPa Calm     95% 0.0 mm 16.00 W/m2
07:54 0.3 °C -0.4 °C 1032.4 hPa Calm     95% 0.0 mm 19.00 W/m2
07:59 0.3 °C -0.4 °C 1032.4 hPa Calm     95% 0.0 mm 23.00 W/m2
08:04 0.5 °C -0.2 °C 1032.4 hPa Calm     95% 0.0 mm 26.00 W/m2
08:09 0.5 °C -0.2 °C 1032.4 hPa Calm     95% 0.0 mm 32.00 W/m2
08:14 0.7 °C 0.0 °C 1032.4 hPa Calm     95% 0.0 mm 42.00 W/m2
08:19 0.9 °C 0.2 °C 1032.4 hPa Calm     95% 0.0 mm 51.00 W/m2
08:24 1.2 °C 0.5 °C 1032.4 hPa Calm     95% 0.0 mm 56.00 W/m2
08:29 1.3 °C 0.6 °C 1032.4 hPa Calm     95% 0.0 mm 63.00 W/m2
08:34 1.3 °C 0.6 °C 1032.4 hPa Calm     95% 0.0 mm 67.00 W/m2
08:39 1.3 °C 0.6 °C 1032.4 hPa Calm     95% 0.0 mm 76.00 W/m2
08:44 1.8 °C 1.1 °C 1032.4 hPa Calm     95% 0.0 mm 79.00 W/m2
08:49 2.2 °C 1.5 °C 1032.4 hPa Calm     95% 0.0 mm 81.00 W/m2
08:54 2.8 °C 2.1 °C 1032.4 hPa NNW 3.2 km/h 4.8 km/h 95% 0.0 mm 84.00 W/m2
08:59 3.6 °C 2.9 °C 1032.4 hPa NW 8.0 km/h 8.0 km/h 95% 0.0 mm 90.00 W/m2
09:04 4.0 °C 3.3 °C 1032.4 hPa NW 4.7 km/h 6.4 km/h 95% 0.0 mm 98.00 W/m2
09:09 4.2 °C 3.5 °C 1032.4 hPa NW 1.4 km/h 3.2 km/h 95% 0.0 mm 98.00 W/m2
09:14 4.5 °C 3.8 °C 1032.4 hPa NW 3.2 km/h 3.2 km/h 95% 0.0 mm 121.00 W/m2
09:19 4.8 °C 4.1 °C 1032.4 hPa NW 6.4 km/h 8.0 km/h 95% 0.0 mm 120.00 W/m2
09:24 5.0 °C 4.3 °C 1032.4 hPa Calm   4.8 km/h 95% 0.0 mm 118.00 W/m2
09:29 5.2 °C 4.5 °C 1032.4 hPa NW 3.2 km/h 4.8 km/h 95% 0.0 mm 137.00 W/m2
09:34 5.4 °C 4.7 °C 1032.4 hPa NW 1.4 km/h 4.8 km/h 95% 0.0 mm 148.00 W/m2
09:39 5.6 °C 4.9 °C 1032.4 hPa NW 1.4 km/h 3.2 km/h 95% 0.0 mm 127.00 W/m2
09:44 5.7 °C 5.0 °C 1032.4 hPa NW 4.8 km/h 4.8 km/h 95% 0.0 mm 121.00 W/m2
09:49 5.9 °C 5.2 °C 1032.4 hPa Calm   1.6 km/h 95% 0.0 mm 207.00 W/m2
09:54 6.2 °C 5.3 °C 1032.7 hPa Calm   1.6 km/h 94% 0.0 mm 142.00 W/m2
09:59 6.3 °C 5.4 °C 1032.7 hPa NW 6.4 km/h 6.4 km/h 94% 0.0 mm 151.00 W/m2
10:04 6.6 °C 5.7 °C 1032.7 hPa NW 4.7 km/h 8.0 km/h 94% 0.0 mm 148.00 W/m2
10:09 6.8 °C 5.7 °C 1032.7 hPa NW 3.2 km/h 6.4 km/h 93% 0.0 mm 192.00 W/m2
10:14 7.2 °C 6.1 °C 1032.7 hPa NW 3.2 km/h 8.0 km/h 93% 0.0 mm 185.00 W/m2
10:19 7.4 °C 6.0 °C 1032.7 hPa SW 3.2 km/h 11.3 km/h 91% 0.3 mm 241.00 W/m2
10:24 7.5 °C 6.0 °C 1032.7 hPa SW 6.4 km/h 6.4 km/h 90% 0.3 mm 162.00 W/m2
10:29 7.5 °C 5.8 °C 1032.7 hPa WSW 3.2 km/h 8.0 km/h 89% 0.3 mm 178.00 W/m2
10:34 7.7 °C 6.0 °C 1032.7 hPa WSW 6.4 km/h 8.0 km/h 89% 0.3 mm 355.00 W/m2
10:39 8.0 °C 6.1 °C 1032.7 hPa WSW 16.1 km/h 16.1 km/h 88% 0.3 mm 318.00 W/m2
10:44 8.2 °C 6.2 °C 1032.7 hPa WSW 6.4 km/h 12.9 km/h 87% 0.3 mm 378.00 W/m2
10:49 8.4 °C 6.2 °C 1032.7 hPa West 13.0 km/h 17.7 km/h 86% 0.3 mm 251.00 W/m2
10:54 8.5 °C 6.1 °C 1032.7 hPa WSW 6.4 km/h 9.7 km/h 85% 0.3 mm 214.00 W/m2
10:59 8.7 °C 6.3 °C 1032.7 hPa West 9.7 km/h 12.9 km/h 85% 0.3 mm 171.00 W/m2
11:04 8.7 °C 6.1 °C 1032.7 hPa WSW 13.0 km/h 14.5 km/h 84% 0.3 mm 121.00 W/m2
11:09 8.5 °C 6.0 °C 1032.7 hPa WNW 9.7 km/h 14.5 km/h 84% 0.3 mm 104.00 W/m2
11:14 8.5 °C 6.0 °C 1032.7 hPa West 3.2 km/h 9.7 km/h 84% 0.3 mm 176.00 W/m2
11:19 8.6 °C 6.0 °C 1032.7 hPa West 3.2 km/h 11.3 km/h 84% 0.0 mm 185.00 W/m2
11:24 8.8 °C 6.2 °C 1033.1 hPa WNW 12.9 km/h 12.9 km/h 84% 0.0 mm 183.00 W/m2
11:29 8.9 °C 6.2 °C 1033.1 hPa West 9.7 km/h 14.5 km/h 83% 0.0 mm 209.00 W/m2
11:34 8.9 °C 6.2 °C 1033.1 hPa West 7.9 km/h 11.3 km/h 83% 0.0 mm 121.00 W/m2
11:39 8.9 °C 6.0 °C 1032.7 hPa West 11.1 km/h 16.1 km/h 82% 0.0 mm 125.00 W/m2
11:44 8.8 °C 5.9 °C 1033.1 hPa West 14.3 km/h 14.5 km/h 82% 0.0 mm 114.00 W/m2
11:49 8.8 °C 5.9 °C 1032.7 hPa WSW 1.4 km/h 8.0 km/h 82% 0.0 mm 128.00 W/m2
11:54 8.8 °C 5.9 °C 1032.7 hPa SW 7.9 km/h 17.7 km/h 82% 0.0 mm 144.00 W/m2
11:59 8.8 °C 5.9 °C 1032.7 hPa SW 3.2 km/h 12.9 km/h 82% 0.0 mm 146.00 W/m2
12:04 8.8 °C 5.9 °C 1032.7 hPa SW 6.4 km/h 16.1 km/h 82% 0.0 mm 153.00 W/m2
12:09 8.9 °C 5.8 °C 1032.7 hPa SW 13.0 km/h 20.9 km/h 81% 0.0 mm 144.00 W/m2
12:14 9.0 °C 5.9 °C 1032.7 hPa SW 6.4 km/h 16.1 km/h 81% 0.0 mm 125.00 W/m2
12:19 9.0 °C 5.9 °C 1032.7 hPa SW 7.9 km/h 17.7 km/h 81% 0.0 mm 128.00 W/m2
12:24 9.1 °C 6.0 °C 1032.7 hPa SW 16.3 km/h 17.7 km/h 81% 0.0 mm 146.00 W/m2
12:29 9.2 °C 5.9 °C 1032.7 hPa SW 11.1 km/h 20.9 km/h 80% 0.0 mm 149.00 W/m2
12:34 9.2 °C 5.9 °C 1032.7 hPa WSW 7.9 km/h 19.3 km/h 80% 0.0 mm 146.00 W/m2
12:39 9.3 °C 6.0 °C 1032.4 hPa WSW 20.9 km/h 20.9 km/h 80% 0.0 mm 151.00 W/m2
12:44 9.3 °C 6.0 °C 1032.7 hPa WSW 6.4 km/h 17.7 km/h 80% 0.0 mm 134.00 W/m2
12:49 9.3 °C 6.0 °C 1032.4 hPa SW 4.7 km/h 20.9 km/h 80% 0.0 mm 107.00 W/m2
12:54 9.4 °C 6.1 °C 1032.4 hPa WSW 11.1 km/h 12.9 km/h 80% 0.0 mm 142.00 W/m2
12:59 9.4 °C 6.3 °C 1032.4 hPa WSW 6.4 km/h 17.7 km/h 81% 0.0 mm 151.00 W/m2
13:04 9.5 °C 6.4 °C 1032.4 hPa SW 7.9 km/h 11.3 km/h 81% 0.0 mm 156.00 W/m2
13:09 9.5 °C 6.4 °C 1032.4 hPa SW 7.9 km/h 14.5 km/h 81% 0.0 mm 120.00 W/m2
13:14 9.5 °C 6.4 °C 1032.4 hPa WSW 7.9 km/h 19.3 km/h 81% 0.0 mm 116.00 W/m2
13:19 9.5 °C 6.4 °C 1032.4 hPa West 6.4 km/h 12.9 km/h 81% 0.0 mm 107.00 W/m2
13:24 9.6 °C 6.5 °C 1032.4 hPa SW 4.7 km/h 12.9 km/h 81% 0.0 mm 121.00 W/m2
13:29 9.6 °C 6.5 °C 1032.4 hPa WSW 13.0 km/h 17.7 km/h 81% 0.0 mm 120.00 W/m2
13:34 9.6 °C 6.7 °C 1032.4 hPa SW 19.3 km/h 19.3 km/h 82% 0.0 mm 130.00 W/m2
13:39 9.5 °C 6.6 °C 1032.4 hPa West 11.1 km/h 20.9 km/h 82% 0.0 mm 135.00 W/m2
13:44 9.6 °C 6.7 °C 1032.4 hPa WSW 13.0 km/h 16.1 km/h 82% 0.0 mm 155.00 W/m2
13:49 9.7 °C 6.8 °C 1032.4 hPa West 14.3 km/h 19.3 km/h 82% 0.0 mm 156.00 W/m2
13:54 9.7 °C 6.8 °C 1032.4 hPa West 13.0 km/h 12.9 km/h 82% 0.0 mm 141.00 W/m2
13:59 9.8 °C 6.9 °C 1032.4 hPa West 9.7 km/h 14.5 km/h 82% 0.0 mm 155.00 W/m2
14:04 9.7 °C 6.8 °C 1032.4 hPa WSW 3.2 km/h 17.7 km/h 82% 0.0 mm 139.00 W/m2
14:09 9.7 °C 6.8 °C 1032.4 hPa SW 6.4 km/h 20.9 km/h 82% 0.0 mm 149.00 W/m2
14:14 9.7 °C 6.8 °C 1032.4 hPa WSW 11.1 km/h 16.1 km/h 82% 0.0 mm 155.00 W/m2
14:19 9.8 °C 6.9 °C 1032.4 hPa WSW 17.7 km/h 17.7 km/h 82% 0.0 mm 155.00 W/m2
14:24 9.8 °C 6.9 °C 1032.4 hPa WSW 11.1 km/h 19.3 km/h 82% 0.0 mm 156.00 W/m2
14:29 9.9 °C 7.0 °C 1032.4 hPa SW 7.9 km/h 14.5 km/h 82% 0.0 mm 102.00 W/m2
14:34 9.9 °C 6.8 °C 1032.4 hPa WSW 16.3 km/h 20.9 km/h 81% 0.0 mm 111.00 W/m2
14:39 9.9 °C 7.0 °C 1032.4 hPa SW 7.9 km/h 14.5 km/h 82% 0.0 mm 118.00 W/m2
14:44 9.9 °C 6.8 °C 1032.4 hPa WNW 13.0 km/h 19.3 km/h 81% 0.0 mm 105.00 W/m2
14:49 9.9 °C 6.8 °C 1032.4 hPa West 13.0 km/h 17.7 km/h 81% 0.0 mm 151.00 W/m2
14:54 9.9 °C 7.0 °C 1032.4 hPa West 9.7 km/h 17.7 km/h 82% 0.0 mm 128.00 W/m2
14:59 9.9 °C 7.0 °C 1032.4 hPa WSW 9.7 km/h 14.5 km/h 82% 0.0 mm 123.00 W/m2
15:04 9.9 °C 7.0 °C 1032.4 hPa SW 11.1 km/h 19.3 km/h 82% 0.0 mm 116.00 W/m2
15:09 9.9 °C 7.0 °C 1032.4 hPa WSW 6.4 km/h 14.5 km/h 82% 0.0 mm 102.00 W/m2
15:14 9.9 °C 7.0 °C 1032.4 hPa SW 14.3 km/h 19.3 km/h 82% 0.0 mm 81.00 W/m2
15:19 9.9 °C 7.0 °C 1032.4 hPa WSW 6.4 km/h 14.5 km/h 82% 0.0 mm 97.00 W/m2
15:24 9.9 °C 7.0 °C 1032.4 hPa WSW 4.7 km/h 11.3 km/h 82% 0.0 mm 97.00 W/m2
15:29 9.9 °C 7.0 °C 1032.1 hPa WSW 19.5 km/h 19.3 km/h 82% 0.0 mm 114.00 W/m2
15:34 9.9 °C 7.0 °C 1032.4 hPa WSW 6.4 km/h 12.9 km/h 82% 0.0 mm 109.00 W/m2
15:39 9.9 °C 7.0 °C 1032.4 hPa SW 6.4 km/h 14.5 km/h 82% 0.0 mm 113.00 W/m2
15:44 10.0 °C 7.1 °C 1032.1 hPa SW 6.4 km/h 9.7 km/h 82% 0.0 mm 90.00 W/m2
15:49 10.0 °C 7.1 °C 1032.4 hPa West 6.4 km/h 9.7 km/h 82% 0.0 mm 79.00 W/m2
15:54 10.0 °C 7.1 °C 1032.4 hPa WSW 3.2 km/h 8.0 km/h 82% 0.0 mm 67.00 W/m2
15:59 10.0 °C 7.1 °C 1032.4 hPa WSW 6.4 km/h 12.9 km/h 82% 0.0 mm 49.00 W/m2
16:04 10.0 °C 7.1 °C 1032.4 hPa WSW 16.1 km/h 16.1 km/h 82% 0.0 mm 42.00 W/m2
16:09 9.9 °C 7.0 °C 1032.4 hPa WSW 13.0 km/h 16.1 km/h 82% 0.0 mm 35.00 W/m2
16:14 9.9 °C 7.0 °C 1032.4 hPa SW 4.7 km/h 14.5 km/h 82% 0.0 mm 30.00 W/m2
16:19 9.9 °C 7.0 °C 1032.4 hPa SW 3.2 km/h 14.5 km/h 82% 0.0 mm 23.00 W/m2
16:24 9.9 °C 7.0 °C 1032.4 hPa SW 3.2 km/h 17.7 km/h 82% 0.0 mm 21.00 W/m2
16:29 9.9 °C 7.1 °C 1032.4 hPa Calm   8.0 km/h 83% 0.0 mm 19.00 W/m2
16:34 9.8 °C 7.1 °C 1032.4 hPa SW 3.2 km/h 12.9 km/h 83% 0.0 mm 12.00 W/m2
16:39 9.8 °C 7.1 °C 1032.4 hPa Calm   4.8 km/h 83% 0.0 mm 11.00 W/m2
16:44 9.7 °C 7.0 °C 1032.4 hPa WSW 16.1 km/h 16.1 km/h 83% 0.0 mm 7.00 W/m2
16:49 9.7 °C 7.1 °C 1032.7 hPa Calm   6.4 km/h 84% 0.0 mm 5.00 W/m2
16:54 9.7 °C 7.1 °C 1032.7 hPa Calm   6.4 km/h 84% 0.0 mm 5.00 W/m2
16:59 9.6 °C 7.0 °C 1032.7 hPa WSW 6.4 km/h 11.3 km/h 84% 0.0 mm 5.00 W/m2
17:04 9.6 °C 7.0 °C 1032.4 hPa WSW 1.4 km/h 8.0 km/h 84% 0.0 mm 0.00 W/m2
17:09 9.6 °C 7.0 °C 1032.4 hPa WSW 4.7 km/h 8.0 km/h 84% 0.0 mm 0.00 W/m2
17:14 9.6 °C 7.0 °C 1032.4 hPa Calm   6.4 km/h 84% 0.0 mm 0.00 W/m2
17:19 9.5 °C 7.1 °C 1032.4 hPa WSW 3.2 km/h 9.7 km/h 85% 0.0 mm 0.00 W/m2
17:24 9.5 °C 7.1 °C 1032.4 hPa WSW 6.4 km/h 8.0 km/h 85% 0.0 mm 0.00 W/m2
17:29 9.5 °C 7.1 °C 1032.4 hPa WSW 4.7 km/h 11.3 km/h 85% 0.0 mm 0.00 W/m2
17:34 9.5 °C 7.1 °C 1032.4 hPa WSW 4.7 km/h 9.7 km/h 85% 0.0 mm 0.00 W/m2
17:39 9.5 °C 7.1 °C 1032.4 hPa WSW 3.2 km/h 8.0 km/h 85% 0.0 mm 0.00 W/m2
17:44 9.5 °C 7.1 °C 1032.7 hPa WSW 4.7 km/h 8.0 km/h 85% 0.0 mm 0.00 W/m2
17:49 9.5 °C 7.1 °C 1032.7 hPa SW 4.7 km/h 8.0 km/h 85% 0.0 mm 0.00 W/m2
17:54 9.4 °C 7.0 °C 1032.7 hPa Calm   8.0 km/h 85% 0.0 mm 0.00 W/m2
17:59 9.4 °C 7.2 °C 1032.7 hPa SW 3.2 km/h 8.0 km/h 86% 0.0 mm 0.00 W/m2
18:04 9.4 °C 7.2 °C 1032.7 hPa SW 3.2 km/h 11.3 km/h 86% 0.0 mm 0.00 W/m2
18:09 9.4 °C 7.2 °C 1032.7 hPa Calm   6.4 km/h 86% 0.0 mm 0.00 W/m2
18:14 9.3 °C 7.1 °C 1032.7 hPa SW 4.7 km/h 8.0 km/h 86% 0.0 mm 0.00 W/m2
18:19 9.3 °C 7.1 °C 1032.7 hPa SW 4.7 km/h 11.3 km/h 86% 0.0 mm 0.00 W/m2
18:24 9.3 °C 7.1 °C 1032.7 hPa WSW 4.7 km/h 11.3 km/h 86% 0.0 mm 0.00 W/m2
18:29 9.3 °C 7.2 °C 1032.7 hPa WSW 6.4 km/h 11.3 km/h 87% 0.0 mm 0.00 W/m2
18:34 9.3 °C 7.2 °C 1032.7 hPa SW 6.4 km/h 9.7 km/h 87% 0.0 mm 0.00 W/m2
18:39 9.2 °C 7.1 °C 1032.7 hPa SSW 11.1 km/h 17.7 km/h 87% 0.0 mm 0.00 W/m2
18:44 9.2 °C 7.1 °C 1032.7 hPa SSW 7.9 km/h 14.5 km/h 87% 0.0 mm 0.00 W/m2
18:49 9.2 °C 7.1 °C 1032.7 hPa SW 1.4 km/h 9.7 km/h 87% 0.0 mm 0.00 W/m2
18:54 9.2 °C 7.1 °C 1032.7 hPa SW 1.4 km/h 9.7 km/h 87% 0.0 mm 0.00 W/m2
18:59 9.1 °C 7.1 °C 1032.7 hPa SSW 3.2 km/h 9.7 km/h 87% 0.0 mm 0.00 W/m2
19:04 9.1 °C 7.1 °C 1032.7 hPa SW 3.2 km/h 6.4 km/h 87% 0.0 mm 0.00 W/m2
19:09 9.1 °C 7.1 °C 1032.7 hPa WSW 3.2 km/h 8.0 km/h 87% 0.0 mm 0.00 W/m2
19:14 9.1 °C 7.1 °C 1032.7 hPa SW 3.2 km/h 8.0 km/h 87% 0.0 mm 0.00 W/m2
19:19 9.1 °C 7.1 °C 1032.7 hPa WSW 4.7 km/h 9.7 km/h 87% 0.0 mm 0.00 W/m2
19:24 9.1 °C 7.1 °C 1032.7 hPa SW 3.2 km/h 8.0 km/h 87% 0.0 mm 0.00 W/m2
19:29 9.1 °C 7.1 °C 1032.7 hPa SW 11.3 km/h 11.3 km/h 87% 0.0 mm 0.00 W/m2
19:34 9.1 °C 7.1 °C 1032.7 hPa SW 1.4 km/h 11.3 km/h 87% 0.0 mm 0.00 W/m2
19:39 9.0 °C 7.0 °C 1032.7 hPa SSW 6.4 km/h 11.3 km/h 87% 0.0 mm 0.00 W/m2
19:44 9.0 °C 7.0 °C 1032.7 hPa WSW 9.7 km/h 11.3 km/h 87% 0.0 mm 0.00 W/m2
19:49 9.0 °C 7.0 °C 1032.7 hPa WSW 4.7 km/h 9.7 km/h 87% 0.0 mm 0.00 W/m2
19:54 9.0 °C 7.1 °C 1032.7 hPa Calm   4.8 km/h 88% 0.0 mm 0.00 W/m2
19:59 9.0 °C 7.1 °C 1032.7 hPa Calm   11.3 km/h 88% 0.0 mm 0.00 W/m2
20:04 9.0 °C 7.0 °C 1032.7 hPa WSW 6.4 km/h 11.3 km/h 87% 0.0 mm 0.00 W/m2
20:09 9.0 °C 7.1 °C 1032.7 hPa WSW 6.4 km/h 9.7 km/h 88% 0.0 mm 0.00 W/m2
20:14 9.0 °C 7.1 °C 1032.7 hPa WSW 6.4 km/h 11.3 km/h 88% 0.0 mm 0.00 W/m2
20:19 9.0 °C 7.1 °C 1032.7 hPa WSW 9.7 km/h 9.7 km/h 88% 0.0 mm 0.00 W/m2
20:24 9.0 °C 7.1 °C 1032.7 hPa West 1.4 km/h 11.3 km/h 88% 0.0 mm 0.00 W/m2
20:29 9.0 °C 7.1 °C 1032.7 hPa SW 9.7 km/h 9.7 km/h 88% 0.0 mm 0.00 W/m2
20:34 9.0 °C 7.1 °C 1032.7 hPa West 3.2 km/h 9.7 km/h 88% 0.0 mm 0.00 W/m2
20:39 9.0 °C 7.1 °C 1032.7 hPa SW 1.4 km/h 9.7 km/h 88% 0.0 mm 0.00 W/m2
20:44 9.0 °C 7.1 °C 1032.7 hPa WSW 6.4 km/h 9.7 km/h 88% 0.0 mm 0.00 W/m2
20:49 9.0 °C 7.1 °C 1032.7 hPa WSW 3.2 km/h 8.0 km/h 88% 0.0 mm 0.00 W/m2
20:54 8.9 °C 7.0 °C 1032.7 hPa WSW 9.7 km/h 9.7 km/h 88% 0.0 mm 0.00 W/m2
20:59 8.9 °C 7.0 °C 1032.7 hPa WSW 3.2 km/h 9.7 km/h 88% 0.0 mm 0.00 W/m2
21:04 8.9 °C 7.0 °C 1032.7 hPa WSW 4.7 km/h 8.0 km/h 88% 0.0 mm 0.00 W/m2
21:09 8.9 °C 7.0 °C 1032.7 hPa Calm   6.4 km/h 88% 0.0 mm 0.00 W/m2
21:14 8.9 °C 7.0 °C 1032.7 hPa SW 3.2 km/h 9.7 km/h 88% 0.0 mm 0.00 W/m2
21:19 8.9 °C 7.0 °C 1032.7 hPa WSW 7.9 km/h 8.0 km/h 88% 0.0 mm 0.00 W/m2
21:24 8.8 °C 6.9 °C 1032.7 hPa SW 1.4 km/h 8.0 km/h 88% 0.0 mm 0.00 W/m2
21:29 8.8 °C 6.9 °C 1032.7 hPa WSW 11.3 km/h 11.3 km/h 88% 0.0 mm 0.00 W/m2
21:34 8.8 °C 7.1 °C 1032.7 hPa WSW 6.4 km/h 8.0 km/h 89% 0.0 mm 0.00 W/m2
21:39 8.8 °C 7.1 °C 1032.7 hPa Calm   4.8 km/h 89% 0.0 mm 0.00 W/m2
21:44 8.8 °C 7.1 °C 1032.7 hPa SW 6.4 km/h 9.7 km/h 89% 0.0 mm 0.00 W/m2
21:49 8.8 °C 7.1 °C 1032.7 hPa Calm   1.6 km/h 89% 0.0 mm 0.00 W/m2
21:54 8.8 °C 7.1 °C 1032.7 hPa SW 1.4 km/h 6.4 km/h 89% 0.0 mm 0.00 W/m2
21:59 8.8 °C 7.1 °C 1032.7 hPa Calm   3.2 km/h 89% 0.0 mm 0.00 W/m2
22:04 8.8 °C 7.1 °C 1032.7 hPa Calm   4.8 km/h 89% 0.0 mm 0.00 W/m2
22:09 8.8 °C 7.1 °C 1032.7 hPa SW 1.4 km/h 4.8 km/h 89% 0.0 mm 0.00 W/m2
22:14 8.8 °C 7.1 °C 1032.7 hPa Calm     89% 0.0 mm 0.00 W/m2
22:19 8.8 °C 7.1 °C 1032.7 hPa Calm   1.6 km/h 89% 0.0 mm 0.00 W/m2
22:24 8.8 °C 7.1 °C 1032.7 hPa Calm   4.8 km/h 89% 0.0 mm 0.00 W/m2
22:29 8.7 °C 7.0 °C 1032.7 hPa Calm     89% 0.0 mm 0.00 W/m2
22:34 8.8 °C 7.1 °C 1032.7 hPa Calm   3.2 km/h 89% 0.0 mm 0.00 W/m2
22:39 8.8 °C 7.2 °C 1032.7 hPa Calm   1.6 km/h 90% 0.0 mm 0.00 W/m2
22:44 8.8 °C 7.2 °C 1032.7 hPa SW 4.8 km/h 4.8 km/h 90% 0.0 mm 0.00 W/m2
22:49 8.8 °C 7.1 °C 1032.7 hPa Calm   4.8 km/h 89% 0.0 mm 0.00 W/m2
22:54 8.8 °C 7.2 °C 1032.7 hPa Calm   1.6 km/h 90% 0.0 mm 0.00 W/m2
22:59 8.8 °C 7.2 °C 1032.7 hPa Calm   6.4 km/h 90% 0.0 mm 0.00 W/m2
23:04 8.8 °C 7.2 °C 1032.7 hPa Calm     90% 0.0 mm 0.00 W/m2
23:09 8.7 °C 7.2 °C 1032.7 hPa SW 8.0 km/h 8.0 km/h 90% 0.0 mm 0.00 W/m2
23:14 8.8 °C 7.2 °C 1032.7 hPa Calm     90% 0.0 mm 0.00 W/m2
23:19 8.8 °C 7.2 °C 1032.7 hPa Calm     90% 0.0 mm 0.00 W/m2
23:24 8.7 °C 7.2 °C 1032.7 hPa Calm     90% 0.0 mm 0.00 W/m2
23:29 8.7 °C 7.2 °C 1032.7 hPa SW 1.4 km/h 6.4 km/h 90% 0.0 mm 0.00 W/m2
23:34 8.7 °C 7.2 °C 1032.7 hPa Calm   1.6 km/h 90% 0.0 mm 0.00 W/m2
23:39 8.7 °C 7.2 °C 1032.7 hPa SW 3.2 km/h 4.8 km/h 90% 0.0 mm 0.00 W/m2
23:44 8.7 °C 7.2 °C 1032.7 hPa SW 9.7 km/h 9.7 km/h 90% 0.0 mm 0.00 W/m2
23:49 8.7 °C 7.2 °C 1032.7 hPa Calm   9.7 km/h 90% 0.0 mm 0.00 W/m2
23:54 8.7 °C 7.2 °C 1032.7 hPa SW 6.4 km/h 8.0 km/h 90% 0.0 mm 0.00 W/m2
23:59 8.8 °C 7.2 °C 1032.7 hPa Calm   4.8 km/h 90% 0.0 mm 0.00 W/m2